Time;durP1;ratioP1;P1;durP2;ratioP2;P2;SDS_P1;SDS_P2;PMS_P1;PMS_P2;Temp;Humidity;BMP_temperature;BMP_pressure;BME280_temperature;BME280_humidity;BME280_pressure;Samples;Min_cycle;Max_cycle;Signal;HPM_P1;HPM_P2
2022/03/17 00:00:11;;;;;;;20.08;13.35;;;8.80;75.30;;;;;;5010406;28;20040;-42
2022/03/17 00:03:02;;;;;;;18.90;12.63;;;8.80;75.30;;;;;;5010904;28;20026;-41
2022/03/17 00:05:28;;;;;;;21.20;13.23;;;8.80;75.20;;;;;;5011272;28;20096;-44
2022/03/17 00:07:55;;;;;;;17.23;12.02;;;8.80;75.10;;;;;;5010981;28;20034;-41
2022/03/17 00:10:22;;;;;;;19.50;14.52;;;8.80;74.70;;;;;;5010938;28;20036;-42
2022/03/17 00:13:13;;;;;;;19.48;12.35;;;8.80;74.90;;;;;;5010747;28;20054;-42
2022/03/17 00:15:42;;;;;;;17.85;12.10;;;8.90;74.80;;;;;;5010751;28;20080;-42
2022/03/17 00:18:09;;;;;;;17.88;13.13;;;8.90;74.60;;;;;;4993295;28;20030;-41
2022/03/17 00:20:35;;;;;;;19.65;12.77;;;8.90;74.90;;;;;;5010851;28;20036;-42
2022/03/17 00:23:01;;;;;;;18.20;13.80;;;8.90;75.10;;;;;;5009230;28;20387;-43
2022/03/17 00:25:29;;;;;;;19.55;13.15;;;8.80;75.20;;;;;;5009711;28;20038;-42
2022/03/17 00:28:00;;;;;;;18.17;13.27;;;8.80;75.10;;;;;;5010316;28;20034;-41
2022/03/17 00:30:27;;;;;;;21.00;13.85;;;8.80;75.30;;;;;;5010889;28;20034;-41
2022/03/17 00:32:56;;;;;;;21.17;12.98;;;8.80;75.30;;;;;;5009824;28;20042;-42
2022/03/17 00:35:38;;;;;;;16.55;13.10;;;8.80;75.20;;;;;;5010764;28;20087;-42
2022/03/17 00:38:20;;;;;;;17.77;13.18;;;8.80;75.00;;;;;;5010587;28;20030;-42
2022/03/17 00:40:47;;;;;;;20.13;15.73;;;8.90;75.00;;;;;;5010291;28;20025;-42
2022/03/17 00:43:15;;;;;;;19.75;13.07;;;8.80;75.30;;;;;;5010204;28;20040;-41
2022/03/17 00:45:43;;;;;;;19.63;13.88;;;8.70;75.30;;;;;;5010533;28;20116;-42
2022/03/17 00:48:10;;;;;;;19.25;13.43;;;8.70;75.60;;;;;;4995151;28;20108;-41
2022/03/17 00:50:38;;;;;;;19.27;13.75;;;8.70;75.70;;;;;;5010510;28;20390;-43
2022/03/17 00:53:05;;;;;;;16.50;12.57;;;8.70;75.80;;;;;;5009474;28;20024;-44
2022/03/17 00:55:32;;;;;;;18.40;13.88;;;8.70;75.80;;;;;;4993005;28;20057;-42
2022/03/17 00:57:59;;;;;;;16.98;13.38;;;8.70;75.80;;;;;;5008860;28;20133;-41
2022/03/17 01:00:26;;;;;;;18.60;13.38;;;8.70;75.80;;;;;;5009976;28;20087;-43
2022/03/17 01:02:56;;;;;;;20.65;14.55;;;8.60;76.10;;;;;;5008720;28;20520;-43
2022/03/17 01:05:24;;;;;;;22.40;12.57;;;8.70;75.80;;;;;;5009099;28;20031;-42
2022/03/17 01:07:53;;;;;;;17.30;12.38;;;8.70;75.70;;;;;;5010179;28;20099;-42
2022/03/17 01:10:22;;;;;;;18.35;13.23;;;8.70;75.60;;;;;;5009416;28;20034;-43
2022/03/17 01:12:48;;;;;;;19.50;14.25;;;8.70;75.50;;;;;;5008770;28;20057;-42
2022/03/17 01:15:17;;;;;;;19.30;13.05;;;8.70;75.60;;;;;;5009469;28;20022;-41
2022/03/17 01:17:43;;;;;;;18.98;13.15;;;8.70;75.40;;;;;;5009144;28;20415;-42
2022/03/17 01:20:12;;;;;;;18.95;13.02;;;8.70;75.40;;;;;;5009661;28;20108;-43
2022/03/17 01:22:37;;;;;;;15.25;12.30;;;8.70;75.50;;;;;;5009885;28;20467;-41
2022/03/17 01:25:05;;;;;;;18.08;13.52;;;8.70;75.80;;;;;;5009403;28;20036;-42
2022/03/17 01:27:34;;;;;;;16.95;12.50;;;8.70;75.50;;;;;;4994868;28;20096;-43
2022/03/17 01:30:04;;;;;;;19.10;12.45;;;8.70;75.30;;;;;;5014102;28;20038;-41
2022/03/17 01:32:32;;;;;;;19.13;14.65;;;8.80;75.10;;;;;;5013126;28;20058;-42
2022/03/17 01:34:59;;;;;;;17.58;13.52;;;8.80;75.20;;;;;;5013895;28;20308;-41
2022/03/17 01:37:27;;;;;;;24.48;13.85;;;8.70;75.20;;;;;;5013899;28;20084;-42
2022/03/17 01:39:55;;;;;;;23.08;13.68;;;8.80;75.10;;;;;;5013850;28;20479;-42
2022/03/17 01:42:22;;;;;;;16.58;13.18;;;8.80;75.10;;;;;;5013658;28;20120;-43
2022/03/17 01:44:49;;;;;;;17.27;13.25;;;8.80;75.40;;;;;;5013632;28;20037;-42
2022/03/17 01:47:28;;;;;;;17.67;12.98;;;8.80;75.30;;;;;;5012606;28;20026;-43
2022/03/17 01:50:04;;;;;;;19.45;14.05;;;8.70;75.40;;;;;;4994818;28;20403;-42
2022/03/17 01:52:31;;;;;;;18.35;12.55;;;8.70;75.50;;;;;;5011889;28;20034;-41
2022/03/17 01:54:59;;;;;;;18.77;14.23;;;8.70;75.70;;;;;;5013672;28;20096;-43
2022/03/17 01:57:26;;;;;;;18.45;14.38;;;8.70;75.50;;;;;;4995358;28;20034;-42
2022/03/17 01:59:53;;;;;;;19.52;13.77;;;8.80;75.50;;;;;;5013355;28;20113;-42
2022/03/17 02:02:20;;;;;;;22.70;15.35;;;8.80;75.10;;;;;;5012430;28;20332;-41
2022/03/17 02:04:50;;;;;;;17.63;15.15;;;8.80;75.00;;;;;;5012282;28;20121;-42
2022/03/17 02:07:19;;;;;;;18.55;14.77;;;8.90;74.80;;;;;;5013155;28;20109;-41
2022/03/17 02:09:48;;;;;;;23.23;15.93;;;8.90;74.70;;;;;;5013402;28;20034;-42
2022/03/17 02:15:18;;;;;;;17.70;14.02;;;8.90;74.50;;;;;;5012960;28;20069;-42
2022/03/17 02:17:47;;;;;;;22.75;15.85;;;8.90;74.20;;;;;;5012420;28;20038;-42
2022/03/17 02:20:15;;;;;;;20.55;16.50;;;8.90;74.20;;;;;;5012983;28;20347;-42
2022/03/17 02:22:45;;;;;;;18.73;14.88;;;8.90;74.00;;;;;;4996031;28;20117;-42
2022/03/17 02:28:02;;;;;;;19.75;17.02;;;9.00;73.70;;;;;;5009116;28;20500;-42
2022/03/17 02:30:31;;;;;;;21.20;14.85;;;9.00;73.70;;;;;;5012257;28;20028;-43
2022/03/17 02:33:02;;;;;;;20.02;15.70;;;8.90;73.90;;;;;;5011523;28;20127;-41
2022/03/17 02:35:33;;;;;;;20.67;16.88;;;8.90;74.30;;;;;;4991873;28;20042;-42
2022/03/17 02:38:02;;;;;;;21.50;16.50;;;8.90;74.10;;;;;;5010806;28;20073;-41
2022/03/17 02:40:31;;;;;;;21.83;16.70;;;8.90;74.30;;;;;;5012571;28;20381;-42
2022/03/17 02:42:58;;;;;;;19.65;15.95;;;8.90;74.00;;;;;;5011489;28;20042;-43
2022/03/17 02:45:27;;;;;;;19.92;16.33;;;8.90;74.20;;;;;;5012163;28;20060;-42
2022/03/17 02:47:54;;;;;;;22.23;16.98;;;8.90;74.00;;;;;;4994894;28;20436;-43
2022/03/17 02:50:21;;;;;;;20.20;16.23;;;8.90;74.10;;;;;;5011507;28;20033;-42
2022/03/17 02:52:48;;;;;;;21.95;16.50;;;8.90;74.10;;;;;;4993079;28;20031;-41
2022/03/17 02:55:16;;;;;;;20.88;17.38;;;8.90;74.00;;;;;;4993000;28;20111;-42
2022/03/17 02:57:53;;;;;;;19.48;16.35;;;8.90;74.00;;;;;;4994507;28;20180;-43
2022/03/17 03:00:19;;;;;;;19.85;16.10;;;8.90;73.90;;;;;;5010701;28;20443;-42
2022/03/17 03:02:45;;;;;;;23.05;16.35;;;8.90;73.90;;;;;;5011250;28;20040;-42
2022/03/17 03:05:12;;;;;;;20.25;16.73;;;8.90;74.10;;;;;;5011574;28;20054;-41
2022/03/17 03:07:39;;;;;;;21.23;16.23;;;8.90;73.80;;;;;;5012102;28;20026;-42
2022/03/17 03:10:08;;;;;;;21.77;17.60;;;8.90;73.90;;;;;;5012097;28;20029;-44
2022/03/17 03:12:37;;;;;;;24.38;18.35;;;8.90;74.00;;;;;;5011633;28;20121;-42
2022/03/17 03:15:04;;;;;;;20.23;15.43;;;8.90;74.10;;;;;;5011843;28;20029;-45
2022/03/17 03:17:32;;;;;;;23.10;17.52;;;8.90;74.40;;;;;;5011713;28;20034;-44
2022/03/17 03:20:01;;;;;;;21.67;18.40;;;8.90;74.30;;;;;;5011408;28;20080;-42
2022/03/17 03:22:36;;;;;;;22.42;17.27;;;8.90;74.30;;;;;;5012101;28;20462;-42
2022/03/17 03:25:04;;;;;;;20.75;16.83;;;8.90;74.10;;;;;;5011844;28;20034;-43
2022/03/17 03:27:34;;;;;;;22.63;17.38;;;8.90;74.40;;;;;;5011900;28;20030;-42
2022/03/17 03:30:01;;;;;;;20.55;16.75;;;8.90;74.30;;;;;;5011532;28;20431;-44
2022/03/17 03:32:27;;;;;;;22.63;17.90;;;8.90;74.40;;;;;;4994674;28;20077;-44
2022/03/17 03:34:54;;;;;;;23.52;18.25;;;8.90;74.30;;;;;;4994427;28;20025;-43
2022/03/17 03:37:28;;;;;;;22.02;18.08;;;8.90;74.20;;;;;;5010873;28;20115;-42
2022/03/17 03:39:57;;;;;;;23.00;18.15;;;8.90;74.40;;;;;;5011313;28;20045;-42
2022/03/17 03:42:25;;;;;;;23.50;17.98;;;8.90;74.50;;;;;;5011852;28;20030;-41
2022/03/17 03:44:52;;;;;;;21.08;17.38;;;8.80;74.90;;;;;;4993320;28;20052;-42
2022/03/17 03:47:21;;;;;;;23.95;18.90;;;8.90;74.70;;;;;;5010018;28;20036;-44
2022/03/17 03:49:51;;;;;;;20.77;17.70;;;8.90;74.80;;;;;;5009154;28;20033;-42
2022/03/17 03:52:19;;;;;;;24.13;18.75;;;8.90;75.00;;;;;;5011046;28;20026;-42
2022/03/17 03:54:46;;;;;;;23.95;18.35;;;8.90;74.90;;;;;;5011603;28;20031;-41
2022/03/17 03:57:13;;;;;;;22.15;17.95;;;8.90;74.60;;;;;;5009931;28;20065;-43
2022/03/17 03:59:42;;;;;;;25.10;19.58;;;8.90;74.70;;;;;;5011426;28;20034;-41
2022/03/17 04:02:11;;;;;;;22.03;17.93;;;9.00;74.70;;;;;;5009723;28;20478;-45
2022/03/17 04:04:40;;;;;;;24.90;19.70;;;8.90;75.00;;;;;;5010149;28;20367;-41
2022/03/17 04:07:10;;;;;;;26.55;19.50;;;8.90;75.30;;;;;;4994268;28;20125;-44
2022/03/17 04:09:39;;;;;;;24.42;19.45;;;8.90;75.40;;;;;;5011499;28;20096;-42
2022/03/17 04:12:08;;;;;;;23.75;18.98;;;8.90;75.00;;;;;;5010296;28;20050;-42
2022/03/17 04:14:34;;;;;;;24.48;19.98;;;8.90;75.50;;;;;;5009898;28;20041;-42
2022/03/17 04:17:02;;;;;;;23.25;19.65;;;8.90;75.80;;;;;;5010235;28;20034;-44
2022/03/17 04:19:30;;;;;;;24.85;20.38;;;8.90;75.80;;;;;;5010887;28;20034;-41
2022/03/17 04:21:58;;;;;;;26.45;20.50;;;8.90;75.90;;;;;;5009582;28;20036;-41
2022/03/17 04:24:24;;;;;;;25.95;20.38;;;8.90;76.00;;;;;;5010986;28;20030;-42
2022/03/17 04:26:52;;;;;;;23.10;19.40;;;8.80;76.10;;;;;;5009801;28;20113;-42
2022/03/17 04:29:20;;;;;;;24.42;20.23;;;8.80;76.00;;;;;;5010728;28;20109;-45
2022/03/17 04:31:48;;;;;;;24.73;19.38;;;8.80;75.90;;;;;;5009345;28;20088;-41
2022/03/17 04:34:14;;;;;;;23.33;19.73;;;8.80;75.70;;;;;;5009998;28;20024;-45
2022/03/17 04:36:41;;;;;;;20.48;17.65;;;8.90;75.30;;;;;;5009589;28;20029;-41
2022/03/17 04:39:14;;;;;;;25.77;20.88;;;8.90;75.60;;;;;;5010800;28;20026;-41
2022/03/17 04:41:42;;;;;;;27.20;20.38;;;8.80;75.80;;;;;;5009606;28;20497;-44
2022/03/17 04:44:12;;;;;;;26.10;21.42;;;8.90;75.30;;;;;;5010588;28;20045;-42
2022/03/17 04:46:41;;;;;;;25.13;19.38;;;8.90;75.30;;;;;;5010343;28;20035;-41
2022/03/17 04:49:09;;;;;;;21.17;18.77;;;8.90;75.40;;;;;;5009455;28;20068;-42
2022/03/17 04:51:35;;;;;;;24.27;20.60;;;8.90;75.00;;;;;;5009461;28;20044;-41
2022/03/17 04:54:02;;;;;;;24.17;19.80;;;8.90;75.10;;;;;;5010160;28;20030;-41
2022/03/17 04:56:30;;;;;;;23.02;19.88;;;8.90;74.90;;;;;;5009653;28;20018;-41
2022/03/17 04:58:58;;;;;;;24.45;20.98;;;8.90;75.10;;;;;;5009937;28;20026;-42
2022/03/17 05:01:26;;;;;;;23.35;19.90;;;8.90;75.30;;;;;;5008180;28;20026;-42
2022/03/17 05:03:53;;;;;;;25.70;20.50;;;8.90;75.00;;;;;;5010345;28;20447;-42
2022/03/17 05:06:20;;;;;;;24.50;20.58;;;8.90;74.90;;;;;;5009553;28;20084;-41
2022/03/17 05:08:47;;;;;;;25.90;20.23;;;8.90;75.30;;;;;;5009820;28;20072;-41
2022/03/17 05:11:14;;;;;;;22.55;19.98;;;8.90;75.30;;;;;;5009912;28;20041;-41
2022/03/17 05:13:46;;;;;;;27.95;20.85;;;8.80;75.40;;;;;;5010113;28;20456;-42
2022/03/17 05:16:14;;;;;;;25.27;21.88;;;8.80;75.40;;;;;;5009425;28;20037;-42
2022/03/17 05:18:42;;;;;;;25.70;20.75;;;8.80;75.50;;;;;;5010141;28;20029;-41
2022/03/17 05:21:09;;;;;;;26.20;21.40;;;8.90;75.30;;;;;;5008886;28;20439;-42
2022/03/17 05:23:38;;;;;;;29.13;22.70;;;8.80;75.60;;;;;;5008677;28;20041;-41
2022/03/17 05:26:04;;;;;;;26.17;21.23;;;8.80;75.60;;;;;;5009021;28;20117;-41
2022/03/17 05:28:33;;;;;;;24.63;21.45;;;8.80;76.40;;;;;;5008983;28;20461;-41
2022/03/17 05:30:59;;;;;;;26.53;21.30;;;8.70;76.90;;;;;;5010031;28;20402;-41
2022/03/17 05:33:24;;;;;;;25.38;21.38;;;8.70;77.20;;;;;;5009897;28;20276;-41
2022/03/17 05:35:52;;;;;;;27.20;21.42;;;8.60;77.70;;;;;;5009472;28;20030;-42
2022/03/17 05:38:19;;;;;;;26.80;22.45;;;8.50;77.90;;;;;;5009068;28;20103;-40
2022/03/17 05:40:48;;;;;;;26.88;22.88;;;8.50;78.20;;;;;;4992071;28;20036;-40
2022/03/17 05:43:13;;;;;;;25.20;21.83;;;8.50;78.40;;;;;;5007997;28;20448;-40
2022/03/17 05:45:41;;;;;;;30.67;24.10;;;8.50;79.00;;;;;;5008965;28;20041;-43
2022/03/17 05:48:09;;;;;;;27.20;23.15;;;8.40;79.60;;;;;;5005777;28;20473;-40
2022/03/17 05:50:41;;;;;;;25.60;22.42;;;8.40;79.70;;;;;;4989957;28;20045;-41
2022/03/17 05:53:14;;;;;;;27.30;23.17;;;8.40;79.40;;;;;;5007183;28;20019;-40
2022/03/17 05:55:42;;;;;;;27.63;22.63;;;8.40;79.40;;;;;;5008128;28;20156;-42
2022/03/17 05:58:09;;;;;;;29.52;23.52;;;8.30;79.30;;;;;;5007971;28;20053;-40
2022/03/17 06:00:36;;;;;;;27.83;23.63;;;8.30;79.60;;;;;;5007438;28;20359;-40
2022/03/17 06:03:07;;;;;;;30.27;24.83;;;8.30;79.70;;;;;;5008982;28;20030;-40
2022/03/17 06:05:35;;;;;;;28.48;23.02;;;8.30;79.80;;;;;;5007958;28;20367;-40
2022/03/17 06:08:02;;;;;;;31.17;24.23;;;8.30;79.90;;;;;;5009409;28;20037;-41
2022/03/17 06:10:33;;;;;;;34.47;25.80;;;8.30;79.90;;;;;;5008334;28;20041;-40
2022/03/17 06:13:03;;;;;;;27.80;23.38;;;8.30;79.60;;;;;;5009592;28;20128;-41
2022/03/17 06:15:29;;;;;;;;;;;8.40;79.60;;;;;;4995400;28;20085;-41
2022/03/17 06:18:13;;;;;;;31.90;24.13;;;8.40;79.70;;;;;;5011693;28;20350;-40
2022/03/17 06:20:40;;;;;;;27.48;23.33;;;8.40;79.60;;;;;;5009232;28;20033;-42
2022/03/17 06:23:07;;;;;;;31.38;24.50;;;8.40;79.50;;;;;;5011999;28;20026;-40
2022/03/17 06:25:35;;;;;;;30.90;24.48;;;8.40;79.40;;;;;;5012545;28;20125;-41
2022/03/17 06:28:03;;;;;;;30.08;24.65;;;8.50;79.50;;;;;;4995346;28;20038;-40
2022/03/17 06:30:31;;;;;;;30.75;23.80;;;8.50;79.40;;;;;;5011754;28;20107;-42
2022/03/17 06:33:01;;;;;;;30.55;23.98;;;8.50;79.60;;;;;;5009914;28;20041;-41
2022/03/17 06:35:28;;;;;;;27.35;23.65;;;8.50;79.40;;;;;;5012077;28;20447;-42
2022/03/17 06:38:17;;;;;;;27.38;23.42;;;8.60;79.30;;;;;;4995058;28;20439;-43
2022/03/17 06:40:46;;;;;;;30.38;24.95;;;8.50;79.30;;;;;;5011281;28;20059;-41
2022/03/17 06:43:17;;;;;;;29.55;24.35;;;8.50;79.60;;;;;;5011340;28;20510;-41
2022/03/17 06:45:44;;;;;;;29.85;24.42;;;8.50;79.90;;;;;;5011117;28;20030;-43
2022/03/17 06:48:11;;;;;;;32.25;25.73;;;8.50;80.00;;;;;;5011251;28;20042;-42
2022/03/17 06:50:39;;;;;;;31.02;25.63;;;8.50;80.10;;;;;;5012225;28;20037;-41
2022/03/17 06:53:07;;;;;;;30.90;24.48;;;8.50;80.10;;;;;;5009417;28;20021;-42
2022/03/17 06:55:33;;;;;;;30.10;25.85;;;8.50;80.30;;;;;;5011222;28;20133;-41
2022/03/17 06:58:00;;;;;;;28.50;25.10;;;8.50;80.80;;;;;;5010944;28;20042;-43
2022/03/17 07:00:29;;;;;;;31.05;26.15;;;8.60;81.00;;;;;;5010733;28;20034;-40
2022/03/17 07:02:58;;;;;;;29.38;24.90;;;8.50;81.50;;;;;;5010020;28;20030;-40
2022/03/17 07:05:28;;;;;;;35.83;29.00;;;8.60;82.50;;;;;;5010556;28;20117;-43
2022/03/17 07:07:59;;;;;;;30.55;25.75;;;8.50;83.70;;;;;;5010072;28;20292;-52
2022/03/17 07:10:28;;;;;;;38.80;29.10;;;8.60;84.90;;;;;;5010835;28;20030;-60
2022/03/17 07:13:00;;;;;;;36.92;28.67;;;8.50;85.60;;;;;;5010889;28;20328;-60
2022/03/17 07:15:29;;;;;;;38.50;30.30;;;8.50;86.00;;;;;;5007857;28;20033;-57
2022/03/17 07:17:56;;;;;;;36.85;30.65;;;8.50;86.40;;;;;;5012309;28;20088;-58
2022/03/17 07:20:23;;;;;;;42.10;32.08;;;8.40;86.70;;;;;;5011824;28;20033;-57
2022/03/17 07:22:50;;;;;;;39.60;30.67;;;8.50;87.00;;;;;;5011465;28;20706;-58
2022/03/17 07:25:18;;;;;;;42.00;31.77;;;8.40;87.20;;;;;;5009845;28;20049;-56
2022/03/17 07:27:47;;;;;;;39.88;30.40;;;8.40;87.60;;;;;;4994634;28;20034;-55
2022/03/17 07:30:18;;;;;;;44.15;34.25;;;8.40;87.70;;;;;;5010612;28;20048;-57
2022/03/17 07:33:01;;;;;;;43.70;31.27;;;8.40;87.90;;;;;;4982387;28;20031;-57
2022/03/17 07:35:29;;;;;;;44.90;33.58;;;8.40;88.30;;;;;;5005135;28;20036;-58
2022/03/17 07:37:58;;;;;;;51.85;34.97;;;8.40;88.50;;;;;;5010505;28;20033;-59
2022/03/17 07:40:25;;;;;;;43.05;33.35;;;8.40;88.80;;;;;;5011563;28;20037;-57
2022/03/17 07:42:52;;;;;;;44.40;35.13;;;8.40;89.00;;;;;;5010644;28;20052;-58
2022/03/17 07:45:18;;;;;;;43.78;34.17;;;8.30;89.20;;;;;;5010934;28;20030;-59
2022/03/17 07:47:52;;;;;;;46.83;34.45;;;8.40;89.50;;;;;;5011075;28;20375;-59
2022/03/17 07:50:28;;;;;;;45.58;34.83;;;8.40;89.60;;;;;;5008897;28;20021;-58
2022/03/17 07:52:54;;;;;;;31.05;21.77;;;8.30;89.90;;;;;;5011204;28;20527;-57
2022/03/17 07:55:20;;;;;;;22.58;14.63;;;8.30;89.80;;;;;;5010777;28;20121;-58
2022/03/17 07:57:47;;;;;;;21.65;14.13;;;8.20;89.60;;;;;;5010102;28;20398;-58
2022/03/17 08:00:14;;;;;;;21.33;13.90;;;8.10;89.50;;;;;;4992835;28;20037;-57
2022/03/17 08:02:41;;;;;;;20.42;11.10;;;8.00;89.40;;;;;;5000163;28;20124;-56
2022/03/17 08:05:12;;;;;;;21.33;10.52;;;7.90;89.20;;;;;;4989797;28;20041;-55
2022/03/17 08:07:39;;;;;;;24.17;10.48;;;7.80;89.20;;;;;;5003673;28;20088;-51
2022/03/17 08:10:08;;;;;;;26.27;10.00;;;7.80;89.30;;;;;;5007064;28;20068;-52
2022/03/17 08:12:37;;;;;;;25.17;9.07;;;7.80;89.30;;;;;;5000127;28;20379;-50
2022/03/17 08:15:05;;;;;;;17.93;7.50;;;7.80;89.30;;;;;;5006344;28;20033;-51
2022/03/17 08:17:34;;;;;;;21.05;8.45;;;7.90;89.20;;;;;;5006701;28;20041;-51
2022/03/17 08:20:01;;;;;;;18.30;7.05;;;7.90;89.00;;;;;;5006606;28;20052;-50
2022/03/17 08:22:27;;;;;;;15.98;5.53;;;7.90;88.80;;;;;;5004158;28;20038;-53
2022/03/17 08:24:53;;;;;;;18.35;6.03;;;8.00;88.60;;;;;;4990256;28;20046;-51
2022/03/17 08:27:19;;;;;;;14.13;4.93;;;8.00;88.50;;;;;;5006448;28;20033;-49
2022/03/17 08:29:47;;;;;;;14.38;4.00;;;8.00;88.10;;;;;;5007253;28;20401;-47
2022/03/17 08:32:13;;;;;;;16.90;3.63;;;8.00;87.80;;;;;;5001980;28;20367;-47
2022/03/17 08:34:39;;;;;;;10.90;3.45;;;8.10;87.50;;;;;;5003290;28;20277;-47
2022/03/17 08:37:05;;;;;;;10.23;3.30;;;8.20;87.30;;;;;;5006978;28;20128;-47
2022/03/17 08:39:32;;;;;;;11.68;2.90;;;8.10;86.70;;;;;;5006426;28;20044;-45
2022/03/17 08:42:00;;;;;;;13.25;3.42;;;8.10;86.60;;;;;;5007205;28;20033;-46
2022/03/17 08:44:26;;;;;;;14.02;2.97;;;8.10;86.70;;;;;;5007661;28;20048;-45
2022/03/17 08:49:41;;;;;;;14.02;2.97;;;7.90;86.60;;;;;;5007030;28;20031;-45
2022/03/17 08:52:07;;;;;;;8.02;3.20;;;7.90;86.90;;;;;;5007226;28;20025;-45
2022/03/17 08:54:35;;;;;;;17.63;3.80;;;7.90;86.80;;;;;;5007027;28;20105;-47
2022/03/17 08:57:04;;;;;;;10.18;2.78;;;7.90;86.90;;;;;;5006019;28;20050;-45
2022/03/17 08:59:41;;;;;;;8.88;2.78;;;7.90;86.80;;;;;;5005928;28;20109;-42
2022/03/17 09:02:14;;;;;;;12.30;2.53;;;7.90;86.50;;;;;;5007398;28;20053;-44
2022/03/17 09:04:49;;;;;;;11.05;2.80;;;8.10;86.60;;;;;;4983394;28;20053;-44
2022/03/17 09:07:18;;;;;;;10.70;2.90;;;8.20;86.00;;;;;;5007395;28;20053;-43
2022/03/17 09:09:51;;;;;;;9.48;2.47;;;8.20;85.10;;;;;;5006502;28;20041;-43
2022/03/17 09:12:19;;;;;;;12.50;2.25;;;8.30;85.00;;;;;;5004939;28;20065;-43
2022/03/17 09:14:47;;;;;;;11.63;2.53;;;8.20;84.70;;;;;;5005371;28;20022;-43
2022/03/17 09:17:19;;;;;;;14.35;2.95;;;8.20;84.90;;;;;;5004522;28;20113;-43
2022/03/17 09:19:46;;;;;;;15.25;3.40;;;8.20;84.80;;;;;;5006013;28;20099;-42
2022/03/17 09:22:14;;;;;;;8.73;2.70;;;8.20;84.90;;;;;;5006043;28;20041;-42
2022/03/17 09:24:40;;;;;;;11.15;2.40;;;8.10;84.40;;;;;;5003420;28;20032;-44
2022/03/17 09:27:05;;;;;;;11.77;2.67;;;8.10;84.60;;;;;;5004414;28;20474;-43
2022/03/17 09:29:33;;;;;;;10.02;1.98;;;8.10;84.90;;;;;;5006860;28;20033;-42
2022/03/17 09:32:00;;;;;;;10.40;1.73;;;8.00;85.10;;;;;;5006489;28;20030;-45
2022/03/17 09:34:35;;;;;;;12.30;2.55;;;8.00;85.30;;;;;;5006627;28;20071;-42
2022/03/17 09:37:04;;;;;;;14.63;2.30;;;8.00;85.40;;;;;;5005285;28;20125;-43
2022/03/17 09:39:49;;;;;;;15.30;2.47;;;8.00;85.00;;;;;;5006244;28;20034;-42
2022/03/17 09:42:19;;;;;;;13.60;3.10;;;8.10;85.00;;;;;;4997529;28;20026;-43
2022/03/17 09:44:50;;;;;;;8.70;2.17;;;8.20;84.80;;;;;;5006458;28;20088;-41
2022/03/17 09:47:19;;;;;;;12.52;2.40;;;8.20;84.90;;;;;;5005287;28;20380;-43
2022/03/17 09:49:49;;;;;;;14.27;2.33;;;8.30;84.50;;;;;;4993182;28;20026;-42
2022/03/17 09:52:18;;;;;;;11.27;2.67;;;8.30;84.40;;;;;;5009998;28;20087;-42
2022/03/17 09:54:50;;;;;;;14.13;2.63;;;8.40;83.80;;;;;;4991688;28;20038;-42
2022/03/17 09:57:22;;;;;;;17.52;3.60;;;8.40;83.50;;;;;;5010064;28;20508;-44
2022/03/17 09:59:58;;;;;;;15.13;2.88;;;8.40;83.60;;;;;;5009502;28;20030;-42
2022/03/17 10:02:25;;;;;;;34.88;5.93;;;8.40;83.20;;;;;;4993473;28;20455;-42
2022/03/17 10:04:52;;;;;;;13.43;2.55;;;8.30;83.30;;;;;;5007921;28;20034;-41
2022/03/17 10:07:24;;;;;;;13.75;2.78;;;8.10;83.80;;;;;;5008309;28;20048;-43
2022/03/17 10:09:50;;;;;;;16.52;3.10;;;8.00;85.00;;;;;;4992911;28;20042;-41
2022/03/17 10:12:23;;;;;;;15.57;2.92;;;7.90;85.40;;;;;;5009042;28;20064;-42
2022/03/17 10:14:53;;;;;;;13.07;3.15;;;7.90;85.80;;;;;;5023886;28;20108;-43
2022/03/17 10:17:38;;;;;;;19.15;3.60;;;7.90;85.60;;;;;;5008787;28;20514;-42
2022/03/17 10:20:22;;;;;;;17.55;2.75;;;8.10;85.60;;;;;;5008590;28;20106;-42
2022/03/17 10:23:01;;;;;;;17.45;2.50;;;8.20;84.60;;;;;;5008705;28;20046;-42
2022/03/17 10:25:34;;;;;;;14.70;2.50;;;8.20;83.20;;;;;;5008942;28;20446;-46
2022/03/17 10:28:02;;;;;;;12.30;2.63;;;8.10;82.10;;;;;;5009349;28;20041;-45
2022/03/17 10:30:34;;;;;;;15.23;3.88;;;8.20;82.10;;;;;;5010305;28;20022;-41
2022/03/17 10:33:19;;;;;;;19.50;5.90;;;8.20;81.50;;;;;;5009694;28;20076;-44
2022/03/17 10:35:48;;;;;;;13.13;2.90;;;8.30;81.60;;;;;;5009190;28;20022;-44
2022/03/17 10:38:19;;;;;;;9.07;2.63;;;8.40;81.50;;;;;;5008414;28;20390;-41
2022/03/17 10:41:00;;;;;;;8.48;2.10;;;8.50;81.10;;;;;;5008028;28;20064;-42
2022/03/17 10:43:29;;;;;;;14.52;2.35;;;8.70;80.80;;;;;;4992852;28;20129;-42
2022/03/17 10:46:20;;;;;;;7.20;1.63;;;8.80;80.70;;;;;;5009721;28;20048;-44
2022/03/17 10:49:06;;;;;;;15.27;2.88;;;8.80;80.10;;;;;;5008187;28;20053;-44
2022/03/17 10:51:52;;;;;;;13.52;2.30;;;8.70;80.40;;;;;;5008114;28;20478;-44
2022/03/17 10:54:19;;;;;;;16.15;2.58;;;8.60;80.90;;;;;;5007325;28;20065;-43
2022/03/17 10:57:18;;;;;;;15.20;2.40;;;8.50;80.70;;;;;;5006837;28;20026;-43
2022/03/17 10:59:48;;;;;;;12.77;3.33;;;8.40;81.20;;;;;;5020685;28;20026;-43
2022/03/17 11:02:17;;;;;;;10.27;2.47;;;8.20;81.20;;;;;;4991540;28;20033;-47
2022/03/17 11:04:46;;;;;;;16.17;3.10;;;8.00;81.80;;;;;;4990246;28;20037;-43
2022/03/17 11:07:14;;;;;;;10.88;2.35;;;8.10;81.10;;;;;;5006781;28;20026;-44
2022/03/17 11:09:43;;;;;;;16.75;3.22;;;8.00;80.40;;;;;;5004168;28;20029;-43
2022/03/17 11:12:26;;;;;;;;;;;8.10;80.60;;;;;;5007332;28;20501;-42
2022/03/17 11:14:54;;;;;;;17.63;2.85;;;8.20;80.10;;;;;;5007854;28;19988;-44
2022/03/17 11:17:49;;;;;;;10.40;2.60;;;8.30;79.90;;;;;;5007341;28;20034;-44
2022/03/17 11:20:22;;;;;;;14.65;3.08;;;8.30;79.80;;;;;;5007366;28;20038;-42
2022/03/17 11:23:35;;;;;;;12.90;2.55;;;8.50;79.50;;;;;;5007414;28;20026;-42
2022/03/17 11:26:03;;;;;;;17.83;3.20;;;8.60;78.10;;;;;;5007254;28;20386;-45
2022/03/17 11:28:40;;;;;;;14.50;3.03;;;8.70;78.10;;;;;;5007191;28;20513;-41
2022/03/17 11:31:10;;;;;;;21.48;3.90;;;8.70;76.90;;;;;;5005832;28;20483;-42
2022/03/17 11:33:54;;;;;;;;;;;8.80;77.50;;;;;;5005139;28;20064;-44
2022/03/17 11:36:24;;;;;;;9.80;2.03;;;8.90;77.30;;;;;;5006210;28;20821;-41
2022/03/17 11:39:06;;;;;;;12.63;2.50;;;9.00;76.80;;;;;;5006745;28;20069;-45
2022/03/17 11:41:52;;;;;;;10.95;3.08;;;9.10;75.70;;;;;;5003330;28;20040;-44
2022/03/17 11:44:40;;;;;;;13.65;2.47;;;9.40;75.00;;;;;;5007952;28;20033;-48
2022/03/17 11:47:12;;;;;;;11.43;2.63;;;9.50;73.70;;;;;;5006402;28;20100;-43
2022/03/17 11:49:54;;;;;;;10.73;2.63;;;9.60;72.00;;;;;;4991016;28;20030;-42
2022/03/17 11:52:21;;;;;;;11.23;2.15;;;9.70;72.70;;;;;;4990702;28;20038;-43
2022/03/17 11:55:08;;;;;;;10.75;2.50;;;10.10;73.50;;;;;;5008528;28;20034;-43
2022/03/17 11:57:34;;;;;;;16.35;3.35;;;9.90;70.70;;;;;;5006217;28;20359;-42
2022/03/17 12:00:01;;;;;;;15.43;3.67;;;10.00;73.00;;;;;;5007121;28;20026;-43
2022/03/17 12:02:31;;;;;;;9.10;3.15;;;10.00;72.20;;;;;;5006550;28;20049;-43
2022/03/17 12:05:14;;;;;;;19.00;3.53;;;9.90;73.60;;;;;;5018951;28;20649;-41
2022/03/17 12:07:49;;;;;;;13.80;2.78;;;10.00;72.60;;;;;;5007288;28;20045;-41
2022/03/17 12:10:54;;;;;;;12.77;2.35;;;10.10;72.50;;;;;;5006226;28;20073;-43
2022/03/17 12:13:24;;;;;;;19.02;3.38;;;9.90;70.90;;;;;;5006915;28;20041;-41
2022/03/17 12:16:01;;;;;;;13.70;2.28;;;9.70;71.10;;;;;;5007766;28;20120;-43
2022/03/17 12:18:31;;;;;;;16.40;3.80;;;9.60;70.30;;;;;;5007172;28;20045;-43
2022/03/17 12:20:59;;;;;;;;;;;9.40;71.20;;;;;;5008544;28;20034;-44
2022/03/17 12:23:49;;;;;;;14.38;4.63;;;9.40;71.30;;;;;;5006762;28;19913;-42
2022/03/17 12:26:24;;;;;;;13.38;3.47;;;9.40;72.10;;;;;;5021868;28;20041;-42
2022/03/17 12:28:51;;;;;;;17.73;3.85;;;9.50;71.90;;;;;;5007104;28;20468;-44
2022/03/17 12:31:17;;;;;;;14.52;2.95;;;9.80;72.20;;;;;;5007662;28;20022;-44
2022/03/17 12:33:49;;;;;;;20.88;2.50;;;9.90;71.60;;;;;;5004079;28;20026;-44
2022/03/17 12:36:22;;;;;;;12.13;2.75;;;9.90;70.50;;;;;;5003838;28;20030;-42
2022/03/17 12:38:50;;;;;;;12.93;3.35;;;9.90;71.20;;;;;;5005786;28;20042;-45
2022/03/17 12:41:19;;;;;;;13.15;3.33;;;9.80;71.80;;;;;;5007033;28;20037;-42
2022/03/17 12:43:52;;;;;;;11.52;2.65;;;9.70;72.00;;;;;;5006476;28;20049;-42
2022/03/17 12:46:19;;;;;;;12.93;3.13;;;9.60;70.80;;;;;;5006022;28;20065;-42
2022/03/17 12:48:45;;;;;;;12.25;2.22;;;10.00;71.60;;;;;;4989781;28;20057;-45
2022/03/17 12:51:18;;;;;;;16.30;2.53;;;10.50;70.90;;;;;;5007337;28;20084;-41
2022/03/17 12:53:47;;;;;;;12.68;3.42;;;10.40;68.30;;;;;;5005172;28;20037;-42
2022/03/17 12:56:15;;;;;;;9.32;2.85;;;10.20;69.00;;;;;;5006960;28;20033;-43
2022/03/17 12:58:41;;;;;;;10.18;3.38;;;10.00;68.70;;;;;;4988759;28;20061;-42
2022/03/17 13:01:13;;;;;;;13.18;3.50;;;9.80;69.10;;;;;;5006593;28;20044;-42
2022/03/17 13:03:40;;;;;;;14.63;2.53;;;9.60;69.50;;;;;;5006343;28;20405;-41